Time;durP1;ratioP1;P1;durP2;ratioP2;P2;SDS_P1;SDS_P2;PMS_P1;PMS_P2;Temp;Humidity;BMP_temperature;BMP_pressure;BME280_temperature;BME280_humidity;BME280_pressure;Samples;Min_cycle;Max_cycle;Signal;HPM_P1;HPM_P2
2023/05/08 00:00:11;;;;;;;9.00;8.20;;;;;;;5.01;89.60;98799.27;106767;1276;24503;-76
2023/05/08 00:03:00;;;;;;;8.20;7.30;;;;;;;4.95;89.57;98795.64;106783;1275;25608;-76
2023/05/08 00:05:28;;;;;;;7.80;6.90;;;;;;;4.90;89.40;98800.24;106510;1276;22522;-78
2023/05/08 00:08:00;;;;;;;10.60;8.20;;;;;;;4.85;89.79;98801.39;106944;1276;22658;-76
2023/05/08 00:10:28;;;;;;;16.80;15.40;;;;;;;4.85;89.58;98802.73;106536;1276;22830;-76
2023/05/08 00:12:56;;;;;;;9.50;8.60;;;;;;;4.87;89.46;98802.98;106467;1276;24337;-76
2023/05/08 00:15:24;;;;;;;7.10;6.40;;;;;;;4.90;89.76;98800.25;106747;1276;22550;-77
2023/05/08 00:17:52;;;;;;;8.50;6.10;;;;;;;4.91;89.79;98802.77;106765;1276;23467;-76
2023/05/08 00:20:20;;;;;;;6.90;6.20;;;;;;;4.91;89.70;98806.84;106859;1276;22566;-75
2023/05/08 00:22:48;;;;;;;7.00;6.00;;;;;;;4.92;89.63;98805.15;106803;1276;23102;-76
2023/05/08 00:25:16;;;;;;;6.80;6.20;;;;;;;4.92;90.05;98810.81;106741;1276;25300;-75
2023/05/08 00:27:44;;;;;;;7.00;6.10;;;;;;;4.93;89.64;98807.23;106758;1276;22507;-76
2023/05/08 00:30:13;;;;;;;6.30;5.70;;;;;;;4.93;89.69;98810.02;106546;1276;22930;-76
2023/05/08 00:32:41;;;;;;;7.20;6.10;;;;;;;4.98;89.67;98808.73;106896;1276;22529;-74
2023/05/08 00:35:09;;;;;;;9.20;8.30;;;;;;;5.01;89.81;98807.45;106887;1274;22531;-74
2023/05/08 00:37:39;;;;;;;8.00;7.20;;;;;;;5.02;89.76;98808.73;106482;1276;22648;-74
2023/05/08 00:40:09;;;;;;;8.70;7.10;;;;;;;5.01;89.48;98815.45;106749;1276;22592;-75
2023/05/08 00:42:37;;;;;;;9.20;7.70;;;;;;;4.99;89.54;98812.86;106840;1256;24192;-75
2023/05/08 00:45:06;;;;;;;8.00;7.30;;;;;;;4.98;89.54;98813.48;106455;1277;22784;-75
2023/05/08 00:47:34;;;;;;;7.10;6.40;;;;;;;4.99;89.27;98816.18;106580;1277;22532;-75
2023/05/08 00:50:04;;;;;;;6.40;5.80;;;;;;;5.03;89.33;98819.65;106575;1277;22660;-75
2023/05/08 00:52:32;;;;;;;7.30;6.10;;;;;;;5.02;89.36;98821.84;106683;1277;24216;-74
2023/05/08 00:55:01;;;;;;;7.80;7.00;;;;;;;5.02;89.43;98822.08;106769;1277;25394;-76
2023/05/08 00:57:34;;;;;;;7.10;6.40;;;;;;;4.98;89.64;98822.29;107027;1277;22546;-77
2023/05/08 01:00:04;;;;;;;7.10;6.40;;;;;;;4.95;89.14;98824.54;106689;1277;24255;-77
2023/05/08 01:02:33;;;;;;;6.30;5.70;;;;;;;4.94;88.97;98825.38;106614;1277;22648;-76
2023/05/08 01:05:02;;;;;;;6.20;5.50;;;;;;;4.96;89.10;98823.59;106482;1277;22524;-77
2023/05/08 01:07:31;;;;;;;6.40;5.80;;;;;;;4.95;89.18;98821.98;106674;1277;24267;-77
2023/05/08 01:09:59;;;;;;;7.00;6.30;;;;;;;4.95;88.90;98823.80;106635;1277;24072;-76
2023/05/08 01:12:46;;;;;;;7.60;6.90;;;;;;;4.94;89.06;98826.17;106445;1277;22544;-76
2023/05/08 01:15:20;;;;;;;7.90;7.10;;;;;;;4.91;89.00;98830.99;106683;1277;24122;-77
2023/05/08 01:18:03;;;;;;;8.00;7.20;;;;;;;4.89;89.01;98835.32;106732;1277;25422;-76
2023/05/08 01:20:37;;;;;;;8.60;6.70;;;;;;;4.88;88.99;98839.52;106547;1277;23422;-77
2023/05/08 01:23:20;;;;;;;8.80;7.80;;;;;;;4.92;89.21;98837.30;106555;1277;22610;-78
2023/05/08 01:26:21;;;;;;;11.30;10.20;;;;;;;4.94;89.01;98832.49;106734;1277;22510;-78
2023/05/08 01:29:24;;;;;;;7.60;6.90;;;;;;;4.96;88.98;98835.36;106571;1277;22530;-76
2023/05/08 01:32:11;;;;;;;8.30;7.50;;;;;;;4.97;89.05;98837.89;106666;1277;25471;-77
2023/05/08 01:34:50;;;;;;;7.60;6.90;;;;;;;4.96;88.88;98839.63;106542;1277;24243;-77
2023/05/08 01:37:42;;;;;;;7.60;6.10;;;;;;;4.96;88.95;98839.63;106582;1277;22535;-75
2023/05/08 01:40:36;;;;;;;6.80;6.10;;;;;;;4.95;88.87;98839.92;106318;1277;22742;-75
2023/05/08 01:43:17;;;;;;;6.90;6.20;;;;;;;4.95;88.79;98838.48;106554;1276;22528;-75
2023/05/08 01:45:49;;;;;;;7.40;6.70;;;;;;;4.96;88.86;98835.94;106766;1276;24348;-77
2023/05/08 01:48:24;;;;;;;8.20;6.10;;;;;;;4.97;88.94;98835.14;106655;1276;24082;-77
2023/05/08 01:50:59;;;;;;;7.80;6.90;;;;;;;4.93;88.93;98837.43;106759;1276;24360;-76
2023/05/08 01:53:31;;;;;;;8.80;7.90;;;;;;;4.92;88.91;98842.04;106746;1276;22542;-76
2023/05/08 01:56:06;;;;;;;8.80;7.70;;;;;;;4.90;88.81;98839.13;106445;1263;22670;-76
2023/05/08 01:58:37;;;;;;;9.00;8.20;;;;;;;4.88;88.79;98841.83;106463;1276;25407;-76
2023/05/08 02:01:07;;;;;;;11.00;7.10;;;;;;;4.87;88.77;98844.73;106779;1276;22518;-76
2023/05/08 02:03:38;;;;;;;8.20;7.40;;;;;;;4.85;88.84;98843.84;106452;1276;25487;-76
2023/05/08 02:06:08;;;;;;;8.40;7.60;;;;;;;4.83;88.56;98845.40;106819;1276;25329;-76
2023/05/08 02:08:36;;;;;;;7.80;7.00;;;;;;;4.77;88.73;98852.49;106808;1272;22531;-76
2023/05/08 02:11:05;;;;;;;8.10;7.30;;;;;;;4.75;88.72;98853.85;106745;1276;25392;-76
2023/05/08 02:13:35;;;;;;;8.10;7.10;;;;;;;4.75;88.56;98855.98;106437;1270;22629;-76
2023/05/08 02:16:07;;;;;;;7.40;6.40;;;;;;;4.74;88.78;98857.53;106405;1276;22754;-76
2023/05/08 02:18:38;;;;;;;9.40;8.50;;;;;;;4.73;88.73;98856.31;106824;1276;22528;-76
2023/05/08 02:21:09;;;;;;;8.40;7.50;;;;;;;4.71;88.58;98858.16;106750;1276;22630;-77
2023/05/08 02:23:37;;;;;;;9.00;7.40;;;;;;;4.64;88.48;98855.93;106789;1276;23441;-77
2023/05/08 02:26:06;;;;;;;8.10;7.30;;;;;;;4.58;88.71;98852.88;106737;1252;22514;-77
2023/05/08 02:28:35;;;;;;;8.20;7.40;;;;;;;4.55;88.35;98851.90;106895;1276;22567;-77
2023/05/08 02:31:04;;;;;;;8.00;7.30;;;;;;;4.51;88.48;98853.55;106880;1276;22629;-78
2023/05/08 02:33:35;;;;;;;8.60;7.70;;;;;;;4.48;88.61;98852.62;106917;1276;22524;-77
2023/05/08 02:36:04;;;;;;;8.40;7.60;;;;;;;4.46;88.32;98850.87;106613;1259;22540;-78
2023/05/08 02:38:36;;;;;;;7.00;6.30;;;;;;;4.41;88.60;98855.30;106902;1276;24245;-79
2023/05/08 02:41:05;;;;;;;6.80;6.10;;;;;;;4.41;88.39;98853.80;106818;1276;22492;-76
2023/05/08 02:43:34;;;;;;;7.60;6.90;;;;;;;4.41;88.50;98853.14;107039;1276;22768;-76
2023/05/08 02:46:02;;;;;;;9.10;8.30;;;;;;;4.44;88.34;98850.66;106770;1276;24255;-78
2023/05/08 02:48:39;;;;;;;10.10;9.20;;;;;;;4.39;88.57;98855.05;106724;1276;22577;-79
2023/05/08 02:51:24;;;;;;;9.00;7.90;;;;;;;4.39;88.77;98860.39;106601;1276;24374;-79
2023/05/08 02:54:08;;;;;;;9.40;8.60;;;;;;;4.37;88.58;98863.02;106692;1276;23307;-80
2023/05/08 02:56:54;;;;;;;9.10;7.50;;;;;;;4.36;88.59;98861.81;106950;1276;22523;-79
2023/05/08 02:59:44;;;;;;;7.90;7.00;;;;;;;4.36;88.23;98864.69;106908;1276;24363;-79
2023/05/08 03:02:27;;;;;;;9.20;6.70;;;;;;;4.38;88.38;98860.69;107017;1276;25269;-78
2023/05/08 03:05:03;;;;;;;7.90;7.10;;;;;;;4.41;88.39;98862.09;106982;1276;22792;-80
2023/05/08 03:07:37;;;;;;;8.80;7.00;;;;;;;4.42;88.74;98859.69;107204;1276;22620;-78
2023/05/08 03:10:11;;;;;;;8.40;7.60;;;;;;;4.42;88.74;98860.34;106823;1276;24326;-77
2023/05/08 03:12:45;;;;;;;8.10;7.40;;;;;;;4.42;88.55;98861.04;106680;1276;22599;-79
2023/05/08 03:15:33;;;;;;;8.00;7.20;;;;;;;4.40;88.23;98861.56;106986;1276;25851;-76
2023/05/08 03:18:07;;;;;;;8.20;7.40;;;;;;;4.40;88.52;98863.02;106947;1276;22993;-79
2023/05/08 03:20:39;;;;;;;9.60;8.60;;;;;;;4.43;88.32;98864.74;107007;1276;24380;-79
2023/05/08 03:23:10;;;;;;;9.00;8.20;;;;;;;4.46;88.31;98862.30;106904;1276;22794;-78
2023/05/08 03:25:42;;;;;;;7.70;6.90;;;;;;;4.47;88.38;98866.32;106528;1276;22532;-76
2023/05/08 03:28:13;;;;;;;8.50;7.20;;;;;;;4.44;88.42;98869.93;106468;1276;22566;-78
2023/05/08 03:30:42;;;;;;;8.90;8.10;;;;;;;4.42;88.47;98875.29;106620;1276;22633;-75
2023/05/08 03:33:15;;;;;;;8.00;7.20;;;;;;;4.42;88.39;98878.98;106493;1276;25386;-75
2023/05/08 03:35:45;;;;;;;8.40;7.30;;;;;;;4.43;88.44;98878.66;106612;1276;23323;-76
2023/05/08 03:38:13;;;;;;;9.10;8.20;;;;;;;4.46;88.36;98877.55;106465;1276;22532;-76
2023/05/08 03:40:42;;;;;;;9.10;7.80;;;;;;;4.49;88.29;98878.80;106514;1276;25595;-75
2023/05/08 03:43:11;;;;;;;8.80;7.90;;;;;;;4.51;88.57;98877.29;107088;1276;23155;-74
2023/05/08 03:45:40;;;;;;;22.30;20.40;;;;;;;4.51;88.44;98882.04;106752;1276;24273;-74
2023/05/08 03:48:09;;;;;;;9.60;8.80;;;;;;;4.58;88.75;98881.64;106737;1276;25297;-75
2023/05/08 03:50:37;;;;;;;8.00;7.30;;;;;;;4.55;88.78;98886.92;106447;1276;22796;-75
2023/05/08 03:53:09;;;;;;;7.70;7.00;;;;;;;4.76;88.93;98889.45;106710;1276;22704;-74
2023/05/08 03:55:38;;;;;;;8.20;7.40;;;;;;;4.85;88.59;98885.98;106717;1276;23181;-75
2023/05/08 03:58:37;;;;;;;7.70;6.90;;;;;;;4.84;88.29;98881.27;106732;1276;22634;-75
2023/05/08 04:01:22;;;;;;;12.20;8.90;;;;;;;4.76;88.26;98887.02;106361;1280;23296;-75
2023/05/08 04:03:53;;;;;;;8.80;7.90;;;;;;;4.76;88.84;98897.36;106435;1280;22535;-74
2023/05/08 04:06:33;;;;;;;8.20;7.40;;;;;;;4.74;88.25;98895.80;106329;1280;22537;-75
2023/05/08 04:09:26;;;;;;;7.90;6.90;;;;;;;4.74;88.41;98898.48;106320;1281;24375;-75
2023/05/08 04:12:02;;;;;;;8.30;7.50;;;;;;;4.74;88.38;98901.09;106303;1280;23940;-75
2023/05/08 04:14:41;;;;;;;10.50;9.50;;;;;;;4.79;88.21;98903.06;106440;1280;22794;-75
2023/05/08 04:17:14;;;;;;;8.30;7.30;;;;;;;4.80;87.92;98905.38;106345;1280;22650;-78
2023/05/08 04:19:46;;;;;;;10.00;7.80;;;;;;;4.73;87.57;98908.80;106343;1280;24385;-78
2023/05/08 04:22:16;;;;;;;9.60;7.40;;;;;;;4.67;87.62;98916.00;106414;1280;22758;-78
2023/05/08 04:24:47;;;;;;;7.80;7.00;;;;;;;4.59;87.23;98916.80;106516;1280;22708;-78
2023/05/08 04:27:16;;;;;;;6.90;5.90;;;;;;;4.52;87.17;98918.63;106522;1280;22648;-78
2023/05/08 04:29:44;;;;;;;9.90;7.90;;;;;;;4.48;87.36;98914.63;106518;1280;22583;-78
2023/05/08 04:32:13;;;;;;;8.50;7.70;;;;;;;4.47;87.09;98918.63;106688;1276;22525;-78
2023/05/08 04:34:41;;;;;;;7.50;6.80;;;;;;;4.46;87.39;98924.27;106655;1276;25400;-78
2023/05/08 04:37:28;;;;;;;8.10;7.30;;;;;;;4.44;87.02;98928.25;106650;1276;24357;-78
2023/05/08 04:39:58;;;;;;;8.20;6.50;;;;;;;4.44;87.05;98931.70;106885;1276;22528;-78
2023/05/08 04:42:27;;;;;;;7.60;6.60;;;;;;;4.51;87.34;98933.34;106960;1276;22615;-78
2023/05/08 04:44:56;;;;;;;7.80;6.70;;;;;;;4.57;87.34;98938.42;106926;1276;25271;-78
2023/05/08 04:47:24;;;;;;;7.10;6.40;;;;;;;4.62;87.24;98937.85;106611;1276;24415;-78
2023/05/08 04:49:52;;;;;;;7.80;7.10;;;;;;;4.65;87.11;98943.30;106904;1276;23903;-78
2023/05/08 04:52:20;;;;;;;8.70;7.30;;;;;;;4.62;86.74;98941.84;106725;1276;22825;-77
2023/05/08 04:54:48;;;;;;;7.20;6.50;;;;;;;4.56;86.72;98940.70;107169;1276;22656;-80
2023/05/08 04:57:16;;;;;;;9.30;7.20;;;;;;;4.56;86.91;98949.20;106707;1276;22937;-79
2023/05/08 04:59:44;;;;;;;7.00;6.30;;;;;;;4.63;87.00;98947.74;106630;1276;25124;-79
2023/05/08 05:02:14;;;;;;;8.90;8.00;;;;;;;4.64;86.80;98955.81;106906;1276;22621;-78
2023/05/08 05:04:42;;;;;;;9.20;8.30;;;;;;;4.64;86.94;98960.95;106991;1276;25240;-79
2023/05/08 05:07:10;;;;;;;9.20;8.30;;;;;;;4.61;86.56;98960.52;106911;1276;24164;-79
2023/05/08 05:09:38;;;;;;;8.40;7.60;;;;;;;4.55;86.47;98965.98;106971;1276;25272;-77
2023/05/08 05:12:07;;;;;;;10.10;9.10;;;;;;;4.54;86.81;98968.21;106866;1266;22643;-78
2023/05/08 05:14:35;;;;;;;10.60;9.60;;;;;;;4.60;86.74;98969.39;106796;1271;22649;-78
2023/05/08 05:17:03;;;;;;;11.60;9.90;;;;;;;4.66;86.67;98969.36;106905;1276;22637;-78
2023/05/08 05:19:31;;;;;;;8.40;7.60;;;;;;;4.69;86.93;98972.05;106921;1276;25261;-78
2023/05/08 05:22:00;;;;;;;12.30;11.10;;;;;;;4.67;86.36;98974.79;106975;1276;22665;-78
2023/05/08 05:24:29;;;;;;;9.20;8.30;;;;;;;4.69;86.85;98975.59;106880;1276;22659;-78
2023/05/08 05:26:57;;;;;;;9.60;8.70;;;;;;;4.74;85.93;98976.11;106607;1276;22582;-78
2023/05/08 05:29:25;;;;;;;11.30;6.20;;;;;;;4.72;85.81;98975.58;106859;1276;22526;-78
2023/05/08 05:31:53;;;;;;;7.70;6.90;;;;;;;4.74;85.60;98980.27;106922;1276;24330;-78
2023/05/08 05:34:21;;;;;;;7.90;6.70;;;;;;;4.77;85.16;98979.17;106897;1276;22601;-78
2023/05/08 05:36:49;;;;;;;8.10;7.10;;;;;;;4.79;85.30;98982.80;106695;1276;22571;-79
2023/05/08 05:39:17;;;;;;;10.00;8.30;;;;;;;4.82;85.16;98982.05;106953;1276;25629;-79
2023/05/08 05:41:45;;;;;;;8.30;7.20;;;;;;;4.85;85.37;98987.81;106632;1276;24371;-80
2023/05/08 05:44:14;;;;;;;9.90;7.20;;;;;;;4.88;84.58;98984.11;106961;1276;22689;-78
2023/05/08 05:46:41;;;;;;;8.10;6.70;;;;;;;4.90;84.92;98986.29;106698;1254;24240;-78
2023/05/08 05:49:11;;;;;;;7.70;7.00;;;;;;;4.99;85.19;98989.56;106544;1276;201554;-78
2023/05/08 05:51:39;;;;;;;7.50;6.70;;;;;;;5.06;85.08;98986.35;106816;1276;24203;-76
2023/05/08 05:54:07;;;;;;;9.00;6.60;;;;;;;5.09;84.64;98989.83;106612;1276;22940;-77
2023/05/08 05:56:36;;;;;;;8.40;7.60;;;;;;;5.07;84.30;98990.91;106824;1276;22769;-76
2023/05/08 05:59:04;;;;;;;9.60;8.70;;;;;;;5.06;83.91;98989.27;107423;1276;25323;-77
2023/05/08 06:01:32;;;;;;;9.30;7.80;;;;;;;5.05;84.09;98991.55;106533;1276;25299;-78
2023/05/08 06:04:00;;;;;;;8.90;7.90;;;;;;;5.10;84.16;98994.40;106805;1276;22629;-82
2023/05/08 06:06:28;;;;;;;7.70;7.00;;;;;;;5.18;83.81;98997.13;106884;1276;25470;-82
2023/05/08 06:08:56;;;;;;;10.60;6.30;;;;;;;5.28;84.07;98998.72;106972;1276;23939;-80
2023/05/08 06:11:25;;;;;;;7.20;6.50;;;;;;;5.42;84.50;99003.64;106886;1276;22595;-81
2023/05/08 06:13:53;;;;;;;9.20;6.70;;;;;;;5.57;84.54;98998.12;106971;1276;23283;-78
2023/05/08 06:16:21;;;;;;;9.60;8.70;;;;;;;5.73;84.46;99001.23;106804;1276;22531;-80
2023/05/08 06:18:50;;;;;;;8.30;7.50;;;;;;;5.83;83.73;99003.02;106775;1276;25270;-82
2023/05/08 06:21:18;;;;;;;8.00;7.20;;;;;;;5.86;83.92;99004.55;106928;1276;23562;-79
2023/05/08 06:23:46;;;;;;;7.90;6.50;;;;;;;5.89;83.03;99008.52;106979;1276;22771;-78
2023/05/08 06:26:14;;;;;;;8.30;7.10;;;;;;;5.89;83.45;99011.64;107032;1276;23252;-81
2023/05/08 06:28:42;;;;;;;9.10;7.40;;;;;;;5.98;83.74;99016.83;106818;1276;22582;-80
2023/05/08 06:31:10;;;;;;;9.30;7.50;;;;;;;6.02;82.90;99023.73;107033;1276;22643;-78
2023/05/08 06:33:38;;;;;;;8.60;7.70;;;;;;;5.97;83.09;99014.45;106984;1276;22522;-78
2023/05/08 06:36:07;;;;;;;7.50;6.50;;;;;;;6.02;83.16;99023.48;106554;1276;22522;-77
2023/05/08 06:38:35;;;;;;;8.40;6.80;;;;;;;6.09;83.10;99025.42;106983;1276;22536;-78
2023/05/08 06:41:03;;;;;;;7.40;6.50;;;;;;;6.14;82.83;99020.84;106973;1276;24385;-78
2023/05/08 06:43:31;;;;;;;7.80;6.10;;;;;;;6.11;82.20;99021.46;106981;1276;25278;-79
2023/05/08 06:45:59;;;;;;;8.90;7.10;;;;;;;6.05;81.84;99028.02;107030;1276;22529;-78
2023/05/08 06:48:27;;;;;;;8.30;7.40;;;;;;;6.03;82.58;99024.15;107099;1276;25345;-79
2023/05/08 06:50:57;;;;;;;9.30;7.20;;;;;;;6.08;82.02;99027.34;106938;1276;22621;-78
2023/05/08 06:53:25;;;;;;;11.10;6.80;;;;;;;6.08;81.74;99034.34;107183;1276;22661;-77
2023/05/08 06:55:53;;;;;;;7.70;6.70;;;;;;;6.11;81.52;99032.33;107421;1276;22634;-77
2023/05/08 06:58:22;;;;;;;8.10;7.00;;;;;;;6.11;81.21;99035.85;107433;1276;24231;-77
2023/05/08 07:00:50;;;;;;;11.10;6.20;;;;;;;6.08;80.94;99041.98;107442;1276;23017;-77
2023/05/08 07:03:18;;;;;;;8.40;6.60;;;;;;;6.05;81.13;99038.77;107853;1276;22565;-75
2023/05/08 07:05:46;;;;;;;10.50;6.90;;;;;;;6.09;81.57;99040.08;107655;1276;22533;-80
2023/05/08 07:08:15;;;;;;;8.60;6.50;;;;;;;6.16;81.41;99033.94;107548;1276;24234;-80
2023/05/08 07:10:43;;;;;;;10.40;6.70;;;;;;;6.27;81.86;99032.99;107551;1269;25278;-79
2023/05/08 07:13:11;;;;;;;6.60;6.00;;;;;;;6.39;81.13;99037.10;107043;1276;22561;-79
2023/05/08 07:15:39;;;;;;;8.40;6.60;;;;;;;6.53;81.38;99035.45;107008;1275;24266;-79
2023/05/08 07:18:08;;;;;;;7.30;5.90;;;;;;;6.68;80.98;99035.02;106935;1277;22639;-79
2023/05/08 07:20:36;;;;;;;6.40;5.40;;;;;;;6.86;81.08;99034.77;106749;1269;22543;-78
2023/05/08 07:23:05;;;;;;;7.50;6.10;;;;;;;6.99;80.10;99038.74;106705;1275;22622;-77
2023/05/08 07:25:34;;;;;;;9.30;5.60;;;;;;;7.04;78.70;99044.98;106686;1276;22668;-78
2023/05/08 07:28:02;;;;;;;9.10;7.70;;;;;;;6.99;79.37;99041.53;106977;1276;23238;-78
2023/05/08 07:30:30;;;;;;;8.70;6.10;;;;;;;7.08;79.55;99041.27;106652;1276;25550;-78
2023/05/08 07:32:58;;;;;;;7.90;7.10;;;;;;;7.23;79.44;99038.96;107025;1276;22904;-80
2023/05/08 07:35:28;;;;;;;8.20;6.60;;;;;;;7.29;77.91;99047.29;107586;1266;22520;-79
2023/05/08 07:37:56;;;;;;;6.70;6.00;;;;;;;7.24;77.36;99056.01;106972;1272;22551;-78
2023/05/08 07:40:24;;;;;;;7.20;6.50;;;;;;;7.19;76.76;99058.31;106626;1276;22520;-79
2023/05/08 07:42:52;;;;;;;7.30;6.30;;;;;;;7.15;76.36;99061.42;106867;1276;22578;-77
2023/05/08 07:45:21;;;;;;;7.10;6.00;;;;;;;7.15;75.48;99060.89;107195;1276;24189;-77
2023/05/08 07:47:51;;;;;;;7.30;6.00;;;;;;;7.27;75.70;99059.01;107219;1276;25322;-78
2023/05/08 07:50:20;;;;;;;8.10;6.20;;;;;;;7.32;75.00;99061.98;107209;1276;22518;-78
2023/05/08 07:52:49;;;;;;;12.30;6.70;;;;;;;7.32;75.82;99059.66;107155;1276;22635;-80
2023/05/08 07:55:18;;;;;;;7.50;5.80;;;;;;;7.31;74.66;99064.31;106910;1276;22515;-79
2023/05/08 07:57:46;;;;;;;7.90;6.80;;;;;;;7.24;74.79;99062.77;107097;1276;24284;-77
2023/05/08 08:00:15;;;;;;;9.70;7.60;;;;;;;7.22;74.87;99064.34;107146;1276;22537;-76
2023/05/08 08:02:44;;;;;;;8.20;7.30;;;;;;;7.22;74.96;99066.92;107157;1276;24219;-78
2023/05/08 08:05:12;;;;;;;11.40;10.40;;;;;;;7.27;75.73;99068.92;107130;1276;22529;-78
2023/05/08 08:07:41;;;;;;;9.60;8.00;;;;;;;7.35;74.53;99070.36;107076;1276;25357;-77
2023/05/08 08:10:09;;;;;;;15.80;7.30;;;;;;;7.38;74.56;99068.36;107057;1276;24052;-79
2023/05/08 08:12:38;;;;;;;8.10;6.30;;;;;;;7.43;74.93;99072.63;106854;1276;22547;-78
2023/05/08 08:15:06;;;;;;;8.10;6.10;;;;;;;7.51;74.72;99068.31;106847;1276;24419;-81
2023/05/08 08:17:35;;;;;;;8.00;6.10;;;;;;;7.60;74.07;99067.67;107084;1276;25272;-78
2023/05/08 08:20:03;;;;;;;8.80;6.60;;;;;;;7.65;74.50;99071.86;107081;1276;24222;-78
2023/05/08 08:22:31;;;;;;;12.80;8.80;;;;;;;7.71;74.38;99067.06;107249;1276;24239;-80
2023/05/08 08:24:59;;;;;;;10.30;6.40;;;;;;;7.76;73.99;99068.50;106985;1276;25387;-79
2023/05/08 08:27:28;;;;;;;12.40;7.30;;;;;;;7.78;74.59;99065.50;106830;1276;24327;-77
2023/05/08 08:29:56;;;;;;;8.60;7.70;;;;;;;7.85;73.97;99063.70;106903;1276;25281;-78
2023/05/08 08:32:43;;;;;;;7.70;6.90;;;;;;;7.89;73.65;99058.45;107088;1276;24192;-76
2023/05/08 08:35:12;;;;;;;6.60;5.70;;;;;;;7.87;73.19;99062.17;107112;1276;22564;-79
2023/05/08 08:37:40;;;;;;;10.20;6.40;;;;;;;7.87;72.72;99058.86;107078;1276;25278;-78
2023/05/08 08:40:09;;;;;;;10.10;6.40;;;;;;;7.91;72.54;99067.17;107173;1276;25482;-78
2023/05/08 08:42:37;;;;;;;8.00;7.10;;;;;;;7.93;72.29;99065.19;107167;1276;25453;-78
2023/05/08 08:45:05;;;;;;;12.80;5.80;;;;;;;7.97;72.22;99066.52;107162;1276;22531;-80
2023/05/08 08:47:40;;;;;;;8.50;6.30;;;;;;;8.09;73.30;99065.98;106948;1276;22528;-78
2023/05/08 08:50:09;;;;;;;7.10;6.30;;;;;;;8.29;71.34;99065.09;107179;1276;22519;-79
2023/05/08 08:52:50;;;;;;;11.40;6.60;;;;;;;8.41;71.13;99062.82;106894;1276;23033;-79
2023/05/08 08:55:22;;;;;;;9.00;5.90;;;;;;;8.60;69.86;99063.73;106894;1276;23887;-78
2023/05/08 08:57:59;;;;;;;7.70;5.10;;;;;;;8.64;69.62;99068.17;106961;1276;24680;-77
2023/05/08 09:00:32;;;;;;;8.70;6.30;;;;;;;8.67;70.07;99068.67;106910;1276;22570;-79
2023/05/08 09:03:01;;;;;;;8.60;6.10;;;;;;;8.74;70.28;99073.98;107005;1276;22917;-79
2023/05/08 09:05:30;;;;;;;7.30;5.80;;;;;;;8.85;70.38;99076.98;107107;1276;25659;-81
2023/05/08 09:07:58;;;;;;;7.30;6.00;;;;;;;8.95;71.61;99073.88;107167;1276;22523;-79
2023/05/08 09:10:27;;;;;;;9.40;6.90;;;;;;;9.08;71.58;99071.75;106915;1276;26506;-80
2023/05/08 09:12:55;;;;;;;8.70;6.70;;;;;;;9.17;71.67;99073.30;107080;1276;22521;-79
2023/05/08 09:15:24;;;;;;;9.00;6.60;;;;;;;9.19;70.27;99072.19;107118;1269;24205;-79
2023/05/08 09:17:52;;;;;;;6.80;5.70;;;;;;;9.14;70.84;99070.87;107150;1276;23832;-79
2023/05/08 09:20:21;;;;;;;9.50;6.50;;;;;;;9.13;70.34;99072.52;107169;1276;25224;-78
2023/05/08 09:22:51;;;;;;;8.10;6.90;;;;;;;9.10;69.81;99073.48;107110;1276;22518;-79
2023/05/08 09:25:20;;;;;;;14.60;5.50;;;;;;;9.11;69.53;99072.84;106985;1276;22864;-79
2023/05/08 09:27:48;;;;;;;7.90;5.70;;;;;;;9.10;69.74;99074.61;106830;1253;23853;-80
2023/05/08 09:30:16;;;;;;;7.10;6.40;;;;;;;9.13;68.78;99074.20;107226;1276;25681;-78
2023/05/08 09:32:44;;;;;;;8.40;6.20;;;;;;;9.09;69.30;99076.27;106988;1276;25443;-80
2023/05/08 09:35:13;;;;;;;40.30;17.30;;;;;;;9.08;69.09;99072.98;106976;1276;24105;-79
2023/05/08 09:37:42;;;;;;;126.10;35.70;;;;;;;9.06;68.49;99076.95;107194;1276;22616;-78
2023/05/08 09:40:15;;;;;;;216.60;50.10;;;;;;;9.05;69.39;99079.10;106682;1276;22521;-80
2023/05/08 09:42:44;;;;;;;225.50;53.40;;;;;;;9.14;69.53;99077.59;107126;1276;23644;-79
2023/05/08 09:45:30;;;;;;;135.40;38.30;;;;;;;9.18;68.37;99072.89;107081;1276;22552;-79
2023/05/08 09:47:59;;;;;;;69.00;28.90;;;;;;;9.31;67.74;99077.42;106987;1276;22529;-79
2023/05/08 09:50:28;;;;;;;30.20;12.60;;;;;;;9.53;67.10;99079.55;106952;1276;22694;-79
2023/05/08 09:52:56;;;;;;;10.30;6.50;;;;;;;9.64;66.18;99081.02;107110;1276;22631;-79
2023/05/08 09:55:24;;;;;;;24.50;7.60;;;;;;;9.68;65.21;99083.92;107060;1276;24235;-80
2023/05/08 09:57:58;;;;;;;8.00;5.10;;;;;;;9.67;65.01;99083.06;107193;1276;22561;-79
2023/05/08 10:00:29;;;;;;;16.60;6.00;;;;;;;9.59;65.46;99083.56;107112;1276;23922;-82
2023/05/08 10:02:59;;;;;;;8.50;5.30;;;;;;;9.55;65.07;99080.75;107172;1276;22717;-85
2023/05/08 10:05:34;;;;;;;10.60;5.90;;;;;;;9.59;65.50;99079.04;107155;1276;22569;-81
2023/05/08 10:08:25;;;;;;;7.20;5.00;;;;;;;9.68;64.51;99078.49;107183;1276;22724;-81
2023/05/08 10:10:53;;;;;;;9.80;4.90;;;;;;;9.66;65.29;99074.55;107014;1276;24385;-79
2023/05/08 10:13:21;;;;;;;6.60;5.40;;;;;;;9.73;65.06;99071.83;107101;1276;25325;-81
2023/05/08 10:15:53;;;;;;;7.50;5.10;;;;;;;9.81;65.15;99074.49;107093;1276;22654;-81
2023/05/08 10:18:28;;;;;;;9.40;5.80;;;;;;;9.87;64.54;99079.41;106863;1276;25455;-79
2023/05/08 10:21:01;;;;;;;9.60;5.70;;;;;;;9.94;64.70;99070.48;107130;1276;22638;-80
2023/05/08 10:23:32;;;;;;;7.10;5.30;;;;;;;9.99;64.29;99074.33;107179;1276;22574;-80
2023/05/08 10:26:10;;;;;;;6.80;5.10;;;;;;;10.07;64.43;99071.80;107025;1276;22913;-78
2023/05/08 10:28:53;;;;;;;9.00;5.10;;;;;;;10.18;64.55;99076.04;107060;1276;22666;-77
2023/05/08 10:31:24;;;;;;;6.60;5.00;;;;;;;10.26;64.28;99072.24;107041;1276;25578;-76
2023/05/08 10:33:55;;;;;;;7.50;5.70;;;;;;;10.26;64.08;99071.50;107084;1276;25416;-76
2023/05/08 10:36:25;;;;;;;13.30;5.60;;;;;;;10.30;63.94;99071.71;107105;1276;22658;-77
2023/05/08 10:38:57;;;;;;;7.80;5.50;;;;;;;10.35;64.03;99072.37;107068;1276;22794;-77
2023/05/08 10:41:26;;;;;;;7.20;5.60;;;;;;;10.45;64.10;99069.84;107038;1276;22574;-77
2023/05/08 10:43:55;;;;;;;7.10;5.70;;;;;;;10.55;63.77;99067.26;107104;1276;24459;-77
2023/05/08 10:46:53;;;;;;;5.80;5.00;;;;;;;10.57;62.47;99065.04;107180;1276;22530;-77
2023/05/08 10:49:40;;;;;;;7.90;5.40;;;;;;;10.61;62.39;99067.41;107075;1276;22529;-79
2023/05/08 10:52:15;;;;;;;7.10;4.80;;;;;;;10.61;61.92;99066.29;107144;1276;22658;-78
2023/05/08 10:54:53;;;;;;;6.50;5.20;;;;;;;10.66;61.60;99063.16;106933;1276;25274;-78
2023/05/08 10:57:21;;;;;;;6.10;5.00;;;;;;;10.77;62.84;99062.98;106856;1276;22617;-78
2023/05/08 10:59:49;;;;;;;10.70;5.90;;;;;;;10.87;63.13;99058.81;107096;1276;25558;-78
2023/05/08 11:02:27;;;;;;;9.60;5.60;;;;;;;10.93;62.40;99064.27;107147;1276;23283;-78
2023/05/08 11:05:16;;;;;;;6.80;5.80;;;;;;;10.81;60.53;99067.55;107120;1276;22648;-78
2023/05/08 11:07:54;;;;;;;8.20;5.80;;;;;;;10.54;60.44;99075.08;107118;1276;22473;-78
2023/05/08 11:10:29;;;;;;;10.80;5.10;;;;;;;10.35;60.29;99076.45;107158;1276;22817;-78
2023/05/08 11:12:59;;;;;;;9.70;5.40;;;;;;;10.24;60.79;99073.83;107172;1276;22519;-78
2023/05/08 11:15:38;;;;;;;8.80;5.60;;;;;;;10.26;60.94;99073.42;107226;1276;22641;-77
2023/05/08 11:18:10;;;;;;;7.00;5.60;;;;;;;10.39;61.68;99070.32;107349;1276;24193;-77
2023/05/08 11:20:57;;;;;;;12.10;5.90;;;;;;;10.53;61.06;99070.54;107356;1276;22524;-79
2023/05/08 11:23:37;;;;;;;5.90;5.10;;;;;;;10.65;60.90;99071.41;107516;1276;22809;-77
2023/05/08 11:26:12;;;;;;;7.80;4.90;;;;;;;10.90;61.26;99065.77;107645;1276;23945;-77
2023/05/08 11:28:55;;;;;;;8.70;4.40;;;;;;;11.11;61.22;99059.10;107637;1253;24222;-78
2023/05/08 11:31:50;;;;;;;9.10;4.50;;;;;;;11.18;60.32;99060.80;107926;1276;25480;-78
2023/05/08 11:34:44;;;;;;;6.90;5.10;;;;;;;11.17;58.99;99058.07;107123;1276;22653;-79
2023/05/08 11:37:21;;;;;;;6.50;5.70;;;;;;;11.04;59.08;99055.98;106916;1276;22574;-78
2023/05/08 11:39:49;;;;;;;10.70;5.60;;;;;;;11.01;57.89;99058.95;107162;1276;22524;-80
2023/05/08 11:42:26;;;;;;;8.20;5.90;;;;;;;11.02;57.58;99053.93;107231;1258;22609;-79
2023/05/08 11:45:09;;;;;;;5.90;4.80;;;;;;;11.09;58.29;99051.92;107202;1276;23898;-78
2023/05/08 11:47:40;;;;;;;7.70;4.80;;;;;;;11.30;59.34;99045.66;107232;1272;22548;-79
2023/05/08 11:50:10;;;;;;;6.80;4.80;;;;;;;11.57;57.69;99046.36;106965;1276;22575;-77
2023/05/08 11:52:40;;;;;;;6.70;5.30;;;;;;;11.65;57.09;99046.55;107077;1276;22607;-76